Time;durP1;ratioP1;P1;durP2;ratioP2;P2;SDS_P1;SDS_P2;PMS_P1;PMS_P2;Temp;Humidity;BMP_temperature;BMP_pressure;BME280_temperature;BME280_humidity;BME280_pressure;Samples;Min_cycle;Max_cycle;Signal;HPM_P1;HPM_P2
2022/11/19 00:00:22;;;;;;;84.55;33.58;;;;;;;11.03;100.00;97133.94;5051641;28;20173;-56
2022/11/19 00:02:49;;;;;;;85.50;34.47;;;;;;;11.01;100.00;97124.69;5052945;28;20178;-56
2022/11/19 00:05:14;;;;;;;73.85;31.50;;;;;;;10.98;100.00;97130.97;5052873;28;20216;-56
2022/11/19 00:07:40;;;;;;;73.82;31.30;;;;;;;11.06;100.00;97135.44;5053051;28;20558;-56
2022/11/19 00:10:05;;;;;;;69.93;30.83;;;;;;;11.18;100.00;97129.97;5052945;28;20746;-56
2022/11/19 00:15:15;;;;;;;61.15;28.95;;;;;;;11.18;100.00;97144.69;5052847;28;20610;-56
2022/11/19 00:17:40;;;;;;;53.33;26.02;;;;;;;11.17;100.00;97143.06;5052766;28;20173;-56
2022/11/19 00:20:06;;;;;;;41.05;21.65;;;;;;;11.15;100.00;97147.56;5052486;28;20650;-56
2022/11/19 00:22:31;;;;;;;41.95;22.30;;;;;;;11.12;100.00;97148.66;5052484;28;20198;-56
2022/11/19 00:24:57;;;;;;;41.17;22.88;;;;;;;11.04;100.00;97145.94;5052371;28;20628;-56
2022/11/19 00:27:22;;;;;;;45.40;23.80;;;;;;;11.08;100.00;97147.28;5052370;28;20180;-56
2022/11/19 00:29:48;;;;;;;47.75;24.13;;;;;;;10.93;100.00;97143.53;5052323;28;20227;-56
2022/11/19 00:32:13;;;;;;;46.72;23.45;;;;;;;10.93;100.00;97137.50;5052204;28;20178;-56
2022/11/19 00:34:38;;;;;;;48.58;24.42;;;;;;;10.90;100.00;97148.13;5050942;28;20227;-56
2022/11/19 00:37:04;;;;;;;46.30;22.75;;;;;;;10.78;100.00;97146.63;5051091;28;20659;-56
2022/11/19 00:39:29;;;;;;;47.00;23.33;;;;;;;10.77;100.00;97145.84;5052284;28;20201;-56
2022/11/19 00:41:55;;;;;;;46.78;23.35;;;;;;;10.77;100.00;97156.19;5052246;28;20174;-56
2022/11/19 00:44:20;;;;;;;44.05;23.67;;;;;;;10.82;100.00;97160.94;5052631;28;20194;-56
2022/11/19 00:46:45;;;;;;;42.00;20.42;;;;;;;10.88;100.00;97170.75;5050928;28;20234;-57
2022/11/19 00:49:11;;;;;;;45.17;22.65;;;;;;;11.00;100.00;97180.00;5050687;28;20180;-56
2022/11/19 00:51:36;;;;;;;51.85;24.15;;;;;;;11.10;100.00;97191.16;5050711;28;20166;-56
2022/11/19 00:54:02;;;;;;;52.67;24.85;;;;;;;11.10;100.00;97183.41;5051857;28;20189;-56
2022/11/19 00:56:27;;;;;;;50.00;25.40;;;;;;;11.10;100.00;97191.97;5051886;28;20168;-56
2022/11/19 00:58:53;;;;;;;50.55;25.52;;;;;;;11.08;100.00;97195.69;5052113;28;20589;-56
2022/11/19 01:01:20;;;;;;;50.35;24.58;;;;;;;11.05;100.00;97188.16;5051849;28;20615;-56
2022/11/19 01:03:46;;;;;;;55.20;27.15;;;;;;;11.05;100.00;97194.19;5051662;28;20205;-56
2022/11/19 01:06:14;;;;;;;59.63;27.67;;;;;;;11.14;100.00;97213.25;5051836;28;20220;-56
2022/11/19 01:08:39;;;;;;;59.40;26.67;;;;;;;11.24;100.00;97235.56;5052088;28;20244;-56
2022/11/19 01:11:08;;;;;;;69.40;29.15;;;;;;;11.21;100.00;97224.69;5051705;28;20651;-55
2022/11/19 01:13:34;;;;;;;125.47;32.10;;;;;;;11.16;100.00;97217.31;5051586;28;20200;-56
2022/11/19 01:16:22;;;;;;;84.65;30.48;;;;;;;11.12;100.00;97226.31;5051731;28;20181;-56
2022/11/19 01:18:49;;;;;;;72.35;30.27;;;;;;;11.13;100.00;97209.00;5051595;28;20224;-56
2022/11/19 01:21:16;;;;;;;106.90;32.08;;;;;;;11.10;100.00;97211.88;5052135;28;20246;-56
2022/11/19 01:23:43;;;;;;;94.35;31.00;;;;;;;11.10;100.00;97217.06;5051543;28;20165;-56
2022/11/19 01:26:09;;;;;;;155.75;31.00;;;;;;;11.02;100.00;97224.66;5051149;28;20256;-56
2022/11/19 01:28:35;;;;;;;77.22;30.38;;;;;;;10.97;100.00;97224.28;5051635;28;20193;-56
2022/11/19 01:31:07;;;;;;;90.90;30.60;;;;;;;10.98;100.00;97228.50;5051530;28;20233;-56
2022/11/19 01:33:34;;;;;;;77.20;29.80;;;;;;;10.96;100.00;97235.56;5051666;28;20285;-56
2022/11/19 01:36:02;;;;;;;144.80;30.20;;;;;;;10.99;100.00;97240.47;5051889;28;20205;-56
2022/11/19 01:38:28;;;;;;;76.80;30.42;;;;;;;11.09;100.00;97249.06;5050412;28;20181;-56
2022/11/19 01:40:55;;;;;;;82.53;29.25;;;;;;;11.13;100.00;97253.84;5051759;28;20663;-56
2022/11/19 01:43:40;;;;;;;69.07;30.33;;;;;;;11.12;100.00;97285.03;5051639;28;20192;-56
2022/11/19 01:46:06;;;;;;;58.85;26.38;;;;;;;11.19;100.00;97283.53;5051688;28;20170;-56
2022/11/19 01:48:33;;;;;;;44.20;23.40;;;;;;;11.17;100.00;97285.44;5051649;28;20174;-54
2022/11/19 01:51:04;;;;;;;53.05;25.88;;;;;;;11.00;100.00;97286.94;5051317;28;20206;-55
2022/11/19 01:53:35;;;;;;;60.63;26.77;;;;;;;11.02;100.00;97297.13;5051728;28;20716;-55
2022/11/19 01:56:03;;;;;;;57.70;26.38;;;;;;;11.06;100.00;97304.53;5051286;28;20174;-56
2022/11/19 01:58:32;;;;;;;59.50;26.58;;;;;;;10.91;100.00;97305.03;5051163;28;20182;-55
2022/11/19 02:00:58;;;;;;;53.22;26.67;;;;;;;10.95;100.00;97301.22;5051155;28;20170;-55
2022/11/19 02:03:25;;;;;;;52.55;24.88;;;;;;;10.93;100.00;97303.13;5051203;28;20166;-55
2022/11/19 02:05:51;;;;;;;56.67;25.73;;;;;;;10.89;100.00;97310.34;5051066;28;20216;-55
2022/11/19 02:08:34;;;;;;;60.97;25.45;;;;;;;10.84;100.00;97311.69;5051125;28;20557;-55
2022/11/19 02:11:15;;;;;;;54.83;24.52;;;;;;;10.90;100.00;97311.16;5051388;28;20196;-55
2022/11/19 02:14:06;;;;;;;86.32;26.45;;;;;;;10.88;100.00;97316.47;5051042;28;20186;-55
2022/11/19 02:16:41;;;;;;;137.50;26.38;;;;;;;10.79;100.00;97319.06;5050609;28;20186;-55
2022/11/19 02:19:34;;;;;;;89.40;27.48;;;;;;;10.67;100.00;97318.31;5051383;28;20626;-55
2022/11/19 02:22:32;;;;;;;53.95;24.65;;;;;;;10.63;100.00;97316.94;5051137;28;20166;-55
2022/11/19 02:25:30;;;;;;;52.83;23.27;;;;;;;10.56;100.00;97320.22;5050982;28;20547;-55
2022/11/19 02:28:19;;;;;;;62.75;26.55;;;;;;;10.64;100.00;97333.28;5050997;28;20312;-55
2022/11/19 02:30:49;;;;;;;65.75;25.85;;;;;;;10.73;100.00;97333.31;5051538;28;20162;-55
2022/11/19 02:33:28;;;;;;;53.17;23.75;;;;;;;10.84;100.00;97332.38;5050882;28;20190;-55
2022/11/19 02:36:16;;;;;;;43.78;22.67;;;;;;;10.82;100.00;97331.72;5051011;28;20158;-54
2022/11/19 02:38:53;;;;;;;43.33;22.33;;;;;;;10.82;100.00;97321.34;5052077;28;20177;-55
2022/11/19 02:41:35;;;;;;;46.88;23.33;;;;;;;10.81;100.00;97327.50;5054507;28;20304;-55
2022/11/19 02:48:04;;;;;;;39.38;21.00;;;;;;;10.86;100.00;97322.75;5072253;28;20216;-55
2022/11/19 02:50:38;;;;;;;29.63;17.35;;;;;;;10.56;100.00;97312.44;5054227;28;20173;-55
2022/11/19 02:53:04;;;;;;;32.53;18.13;;;;;;;10.59;100.00;97322.53;5054488;28;20195;-55
2022/11/19 02:55:30;;;;;;;34.20;18.17;;;;;;;10.55;100.00;97316.78;5054160;28;20252;-55
2022/11/19 03:04:28;;;;;;;31.35;18.20;;;;;;;10.50;100.00;97315.56;5054135;28;20336;-55
2022/11/19 03:06:36;;;;;;;23.80;13.95;;;;;;;10.45;100.00;97295.25;5053982;28;20297;-55
2022/11/19 03:09:02;;;;;;;21.83;12.93;;;;;;;10.61;100.00;97315.44;5054194;28;20170;-55
2022/11/19 03:11:30;;;;;;;20.73;12.60;;;;;;;10.77;100.00;97328.69;5053897;28;20181;-55
2022/11/19 03:17:27;;;;;;;15.43;10.57;;;;;;;10.82;100.00;97336.88;5054023;28;20252;-55
2022/11/19 03:20:08;;;;;;;20.27;10.95;;;;;;;10.89;100.00;97332.81;5053977;28;20173;-55
2022/11/19 03:23:11;;;;;;;14.68;9.85;;;;;;;10.96;100.00;97336.50;5053644;28;20711;-55
2022/11/19 03:25:43;;;;;;;12.75;9.25;;;;;;;11.02;100.00;97354.06;5053379;28;20638;-55
2022/11/19 03:28:13;;;;;;;14.75;8.77;;;;;;;11.13;100.00;97347.03;5054028;28;20158;-55
2022/11/19 03:30:42;;;;;;;16.00;10.05;;;;;;;11.19;100.00;97346.50;5053544;28;20161;-55
2022/11/19 03:33:12;;;;;;;14.65;10.77;;;;;;;11.31;100.00;97367.88;5053565;28;20194;-55
2022/11/19 03:35:52;;;;;;;13.52;9.50;;;;;;;11.41;100.00;97381.66;5053434;28;20154;-55
2022/11/19 03:38:28;;;;;;;13.52;9.88;;;;;;;11.43;100.00;97388.34;5053549;28;20283;-55
2022/11/19 03:40:55;;;;;;;16.13;10.25;;;;;;;11.48;100.00;97387.94;5053414;28;20219;-55
2022/11/19 03:43:27;;;;;;;13.77;9.30;;;;;;;11.52;100.00;97378.94;5053332;28;20173;-55
2022/11/19 03:45:56;;;;;;;15.60;8.80;;;;;;;11.54;100.00;97382.22;5053302;28;20179;-55
2022/11/19 03:48:22;;;;;;;13.48;8.25;;;;;;;11.60;100.00;97392.06;5051870;28;20217;-55
2022/11/19 03:50:58;;;;;;;11.63;7.50;;;;;;;11.64;100.00;97393.44;5052793;28;20174;-55
2022/11/19 03:53:25;;;;;;;10.32;8.32;;;;;;;11.66;100.00;97389.75;5053066;28;20239;-55
2022/11/19 03:56:03;;;;;;;8.05;6.40;;;;;;;11.67;100.00;97398.38;5051736;28;20663;-55
2022/11/19 03:58:29;;;;;;;9.00;6.80;;;;;;;11.71;100.00;97403.13;5053546;28;20611;-55
2022/11/19 04:00:55;;;;;;;8.07;6.28;;;;;;;11.75;100.00;97408.84;5053083;28;20181;-55
2022/11/19 04:03:20;;;;;;;9.50;6.25;;;;;;;11.76;100.00;97407.88;5053042;28;20170;-55
2022/11/19 04:05:46;;;;;;;7.95;6.18;;;;;;;11.78;100.00;97422.34;5052871;28;20779;-55
2022/11/19 04:08:11;;;;;;;6.90;5.43;;;;;;;11.82;100.00;97430.66;5053043;28;20182;-55
2022/11/19 04:10:37;;;;;;;8.25;4.65;;;;;;;11.81;100.00;97432.47;5052666;28;20184;-55
2022/11/19 04:13:02;;;;;;;5.13;4.63;;;;;;;11.83;100.00;97435.72;5052673;28;20330;-55
2022/11/19 04:15:28;;;;;;;9.65;6.32;;;;;;;11.91;100.00;97438.44;5052620;28;20658;-55
2022/11/19 04:17:53;;;;;;;8.90;5.90;;;;;;;11.90;100.00;97448.97;5052584;28;20185;-55
2022/11/19 04:20:19;;;;;;;10.95;7.28;;;;;;;11.92;100.00;97445.28;5052798;28;20312;-55
2022/11/19 04:22:44;;;;;;;8.75;6.43;;;;;;;11.93;100.00;97440.91;5052500;28;20173;-55
2022/11/19 04:25:10;;;;;;;10.00;7.78;;;;;;;11.91;100.00;97433.25;5052595;28;20227;-55
2022/11/19 04:27:35;;;;;;;13.98;8.00;;;;;;;11.92;100.00;97441.88;5052466;28;20598;-55
2022/11/19 04:30:01;;;;;;;10.65;7.55;;;;;;;11.93;100.00;97448.69;5052567;28;20200;-55
2022/11/19 04:32:27;;;;;;;10.20;6.93;;;;;;;11.94;100.00;97458.09;5051102;28;20507;-55
2022/11/19 04:34:52;;;;;;;10.73;7.32;;;;;;;11.95;100.00;97467.50;5052620;28;20178;-55
2022/11/19 04:37:18;;;;;;;9.90;7.20;;;;;;;11.96;100.00;97459.59;5052547;28;20173;-55
2022/11/19 04:39:43;;;;;;;10.05;6.75;;;;;;;12.02;100.00;97455.66;5052478;28;20172;-55
2022/11/19 04:42:09;;;;;;;8.48;6.82;;;;;;;12.00;100.00;97458.38;5051006;28;20173;-55
2022/11/19 04:44:34;;;;;;;11.02;6.13;;;;;;;11.99;100.00;97451.56;5052190;28;20162;-55
2022/11/19 04:47:00;;;;;;;7.93;6.43;;;;;;;12.00;100.00;97452.34;5052233;28;20541;-55
2022/11/19 04:49:25;;;;;;;10.75;6.88;;;;;;;12.01;100.00;97451.44;5052321;28;20169;-55
2022/11/19 04:51:50;;;;;;;6.07;5.18;;;;;;;12.03;100.00;97449.50;5052077;28;20178;-55
2022/11/19 04:54:16;;;;;;;5.78;5.18;;;;;;;12.06;100.00;97462.19;5052469;28;20202;-54
2022/11/19 04:56:41;;;;;;;5.88;5.28;;;;;;;12.03;100.00;97462.47;5052108;28;20173;-55
2022/11/19 04:59:07;;;;;;;8.75;5.88;;;;;;;12.06;100.00;97473.38;5051991;28;20746;-55
2022/11/19 05:01:32;;;;;;;4.70;4.30;;;;;;;12.11;100.00;97481.56;5051215;28;20173;-55
2022/11/19 05:03:58;;;;;;;5.15;4.60;;;;;;;12.10;100.00;97490.31;5051856;28;20197;-55
2022/11/19 05:06:23;;;;;;;6.10;4.90;;;;;;;12.15;100.00;97495.06;5051894;28;20189;-55
2022/11/19 05:08:48;;;;;;;6.63;5.00;;;;;;;12.18;100.00;97502.56;5051906;28;20659;-55
2022/11/19 05:11:14;;;;;;;7.85;5.57;;;;;;;12.16;100.00;97499.31;5052011;28;20186;-55
2022/11/19 05:13:39;;;;;;;7.03;5.50;;;;;;;12.22;100.00;97524.69;5051719;28;20584;-55
2022/11/19 05:16:05;;;;;;;11.15;8.30;;;;;;;12.23;100.00;97523.72;5051813;28;20603;-55
2022/11/19 05:18:30;;;;;;;18.40;12.27;;;;;;;12.28;100.00;97524.13;5050483;28;20181;-55
2022/11/19 05:20:56;;;;;;;20.75;13.20;;;;;;;12.20;100.00;97526.63;5051802;28;20178;-55
2022/11/19 05:23:21;;;;;;;19.63;12.07;;;;;;;12.11;100.00;97519.63;5051708;28;20554;-55
2022/11/19 05:25:47;;;;;;;16.13;11.27;;;;;;;12.17;100.00;97526.88;5051574;28;20264;-55
2022/11/19 05:28:12;;;;;;;18.42;13.05;;;;;;;12.16;100.00;97533.00;5051580;28;20196;-55
2022/11/19 05:30:38;;;;;;;21.20;13.35;;;;;;;12.13;100.00;97533.31;5051641;28;20176;-55
2022/11/19 05:33:03;;;;;;;21.58;14.43;;;;;;;12.14;100.00;97537.53;5051554;28;20575;-55
2022/11/19 05:35:29;;;;;;;26.52;15.75;;;;;;;12.12;100.00;97540.25;5051555;28;20180;-55
2022/11/19 05:37:54;;;;;;;26.02;15.20;;;;;;;12.15;100.00;97540.00;5051760;28;20174;-55
2022/11/19 05:40:19;;;;;;;16.98;12.05;;;;;;;12.19;100.00;97562.09;5051932;28;20549;-55
2022/11/19 05:42:45;;;;;;;17.95;12.52;;;;;;;12.24;100.00;97561.66;5051596;28;20170;-55
2022/11/19 05:45:11;;;;;;;16.45;11.55;;;;;;;12.24;100.00;97564.25;5051579;28;20249;-56
2022/11/19 05:47:36;;;;;;;14.55;11.80;;;;;;;12.23;100.00;97567.81;5050186;28;20276;-55
2022/11/19 05:50:03;;;;;;;20.77;12.30;;;;;;;12.23;100.00;97573.00;5051664;28;20169;-55
2022/11/19 05:52:28;;;;;;;16.42;12.40;;;;;;;12.22;100.00;97579.97;5051822;28;20177;-55
2022/11/19 05:54:53;;;;;;;16.58;11.35;;;;;;;12.25;100.00;97591.88;5050101;28;20165;-55
2022/11/19 05:57:19;;;;;;;15.52;10.02;;;;;;;12.28;100.00;97599.34;5051625;28;20666;-55
2022/11/19 05:59:44;;;;;;;15.27;10.20;;;;;;;12.30;100.00;97600.88;5051359;28;20178;-55
2022/11/19 06:02:10;;;;;;;13.60;9.73;;;;;;;12.39;100.00;97597.47;5051278;28;20161;-55
2022/11/19 06:04:35;;;;;;;14.60;9.32;;;;;;;12.43;100.00;97606.59;5051558;28;20190;-55
2022/11/19 06:07:01;;;;;;;14.32;9.07;;;;;;;12.38;100.00;97595.81;5051258;28;20740;-55
2022/11/19 06:09:26;;;;;;;13.30;9.60;;;;;;;12.45;100.00;97614.25;5051410;28;20178;-55
2022/11/19 06:11:52;;;;;;;14.02;9.98;;;;;;;12.46;100.00;97614.13;5051339;28;20170;-55
2022/11/19 06:14:23;;;;;;;10.93;9.45;;;;;;;12.48;100.00;97614.81;5055346;28;20197;-55
2022/11/19 06:16:56;;;;;;;12.40;9.55;;;;;;;12.52;100.00;97615.34;5055230;28;20184;-55
2022/11/19 06:19:23;;;;;;;13.30;9.77;;;;;;;12.58;100.00;97623.41;5055229;28;20196;-55
2022/11/19 06:21:49;;;;;;;14.00;10.05;;;;;;;12.60;100.00;97629.28;5054946;28;20213;-55
2022/11/19 06:24:15;;;;;;;12.52;9.95;;;;;;;12.62;100.00;97631.75;5054878;28;20173;-55
2022/11/19 06:26:41;;;;;;;25.40;16.45;;;;;;;12.62;100.00;97626.56;5054759;28;20227;-55
2022/11/19 06:29:07;;;;;;;33.35;22.40;;;;;;;12.67;100.00;97635.56;5054713;28;20182;-55
2022/11/19 06:31:33;;;;;;;46.53;28.45;;;;;;;12.70;100.00;97634.47;5054817;28;20174;-55
2022/11/19 06:33:59;;;;;;;43.70;27.25;;;;;;;12.73;100.00;97649.78;5054912;28;20557;-56
2022/11/19 06:36:24;;;;;;;44.15;28.80;;;;;;;12.75;100.00;97638.31;5054553;28;20201;-55
2022/11/19 06:38:50;;;;;;;48.15;29.10;;;;;;;12.76;100.00;97633.91;5054779;28;20174;-56
2022/11/19 06:41:16;;;;;;;47.45;29.20;;;;;;;12.75;100.00;97646.09;5054784;28;20177;-56
2022/11/19 06:43:42;;;;;;;41.22;25.27;;;;;;;12.78;100.00;97650.19;5053226;28;20538;-56
2022/11/19 06:46:09;;;;;;;38.35;26.13;;;;;;;12.77;100.00;97656.34;5055408;28;20193;-56
2022/11/19 06:48:35;;;;;;;37.55;26.38;;;;;;;12.73;100.00;97658.38;5054417;28;20560;-56
2022/11/19 06:51:01;;;;;;;32.40;24.80;;;;;;;12.75;100.00;97671.22;5054338;28;20260;-56
2022/11/19 06:53:27;;;;;;;40.65;26.75;;;;;;;12.76;100.00;97683.25;5054419;28;20266;-55
2022/11/19 06:56:10;;;;;;;41.42;25.73;;;;;;;12.75;100.00;97679.84;5054226;28;20554;-56
2022/11/19 06:58:35;;;;;;;40.60;24.20;;;;;;;12.79;100.00;97685.56;5054214;28;20169;-55
2022/11/19 07:01:01;;;;;;;37.25;22.40;;;;;;;12.81;100.00;97694.03;5054106;28;20165;-55
2022/11/19 07:03:27;;;;;;;38.22;22.08;;;;;;;12.74;100.00;97692.94;5054085;28;20323;-56
2022/11/19 07:06:01;;;;;;;39.38;22.52;;;;;;;12.72;100.00;97695.66;5053862;28;20770;-56
2022/11/19 07:08:27;;;;;;;38.03;24.55;;;;;;;12.73;100.00;97686.91;5054445;28;20180;-56
2022/11/19 07:10:52;;;;;;;35.65;22.35;;;;;;;12.61;100.00;97687.22;5054034;28;20239;-55
2022/11/19 07:13:18;;;;;;;37.67;22.90;;;;;;;12.65;100.00;97691.19;5053758;28;20189;-56
2022/11/19 07:15:43;;;;;;;36.72;23.02;;;;;;;12.66;100.00;97705.78;5053978;28;20178;-55
2022/11/19 07:18:09;;;;;;;43.78;26.83;;;;;;;12.69;100.00;97706.34;5054151;28;20173;-56
2022/11/19 07:20:34;;;;;;;49.40;29.08;;;;;;;12.73;100.00;97706.88;5054071;28;20178;-55
2022/11/19 07:23:00;;;;;;;47.28;26.20;;;;;;;12.74;100.00;97705.94;5053455;28;20219;-55
2022/11/19 07:25:26;;;;;;;46.47;26.08;;;;;;;12.76;100.00;97711.78;5051766;28;20235;-56
2022/11/19 07:27:52;;;;;;;50.25;29.40;;;;;;;12.76;100.00;97711.78;5054019;28;20558;-56
2022/11/19 07:30:17;;;;;;;47.17;25.95;;;;;;;12.69;100.00;97724.50;5053876;28;20175;-56
2022/11/19 07:32:43;;;;;;;44.58;25.13;;;;;;;12.66;100.00;97716.16;5053597;28;20206;-56
2022/11/19 07:35:09;;;;;;;46.75;26.77;;;;;;;12.67;100.00;97720.41;5053523;28;20174;-56
2022/11/19 07:37:38;;;;;;;45.90;25.88;;;;;;;12.68;100.00;97724.63;5053638;28;20176;-55
2022/11/19 07:40:04;;;;;;;47.00;30.38;;;;;;;12.67;100.00;97723.81;5053864;28;20258;-55
2022/11/19 07:42:48;;;;;;;56.95;30.75;;;;;;;12.71;100.00;97720.00;5053872;28;20170;-55
2022/11/19 07:45:14;;;;;;;56.08;33.20;;;;;;;12.68;100.00;97717.69;5053582;28;20634;-55
2022/11/19 07:47:40;;;;;;;52.30;30.58;;;;;;;12.75;100.00;97700.59;5053320;28;20220;-55
2022/11/19 07:50:05;;;;;;;48.13;29.15;;;;;;;12.75;100.00;97718.78;5053460;28;20209;-55
2022/11/19 07:52:31;;;;;;;46.58;29.50;;;;;;;12.77;100.00;97729.03;5053413;28;20191;-55
2022/11/19 07:54:56;;;;;;;46.95;29.60;;;;;;;12.85;100.00;97732.59;5053562;28;20257;-55
2022/11/19 07:57:22;;;;;;;52.15;29.23;;;;;;;12.92;100.00;97748.44;5053211;28;20277;-55
2022/11/19 07:59:47;;;;;;;50.17;30.67;;;;;;;12.95;100.00;97742.97;5053209;28;20170;-55
2022/11/19 08:02:13;;;;;;;50.80;31.20;;;;;;;13.01;100.00;97732.09;5053143;28;20580;-56
2022/11/19 08:04:39;;;;;;;53.47;32.03;;;;;;;13.07;100.00;97739.31;5053225;28;20190;-55
2022/11/19 08:07:04;;;;;;;56.60;33.58;;;;;;;13.17;100.00;97742.72;5052943;28;20280;-55
2022/11/19 08:09:30;;;;;;;56.90;32.70;;;;;;;13.16;100.00;97738.50;5053189;28;20177;-56
2022/11/19 08:11:55;;;;;;;53.40;33.03;;;;;;;13.18;100.00;97740.00;5053132;28;20224;-55
2022/11/19 08:14:21;;;;;;;59.78;31.90;;;;;;;13.25;100.00;97748.06;5052943;28;20189;-55
2022/11/19 08:19:30;;;;;;;63.63;36.83;;;;;;;13.41;100.00;97751.75;5051352;28;20168;-55
2022/11/19 08:21:56;;;;;;;68.75;38.15;;;;;;;13.42;100.00;97752.56;5051525;28;20174;-55
2022/11/19 08:24:22;;;;;;;63.83;36.53;;;;;;;13.39;100.00;97748.47;5052320;28;20174;-55
2022/11/19 08:26:47;;;;;;;68.00;39.25;;;;;;;13.39;100.00;97735.47;5052180;28;20760;-55
2022/11/19 08:29:15;;;;;;;76.75;39.15;;;;;;;13.45;100.00;97747.91;5052479;28;20670;-55
2022/11/19 08:31:41;;;;;;;75.90;39.60;;;;;;;13.49;100.00;97743.25;5052554;28;20178;-56
2022/11/19 08:34:07;;;;;;;71.18;38.75;;;;;;;13.58;100.00;97752.81;5052588;28;20206;-56
2022/11/19 08:36:32;;;;;;;69.43;37.58;;;;;;;13.62;100.00;97755.00;5051634;28;20565;-56
2022/11/19 08:38:59;;;;;;;60.85;35.83;;;;;;;13.61;100.00;97762.94;5052556;28;20577;-56
2022/11/19 08:44:10;;;;;;;64.50;33.80;;;;;;;13.69;100.00;97781.25;5053181;28;20545;-56
2022/11/19 08:46:36;;;;;;;68.88;35.60;;;;;;;13.77;100.00;97784.78;5052392;28;20166;-56
2022/11/19 08:49:02;;;;;;;60.97;34.65;;;;;;;13.86;100.00;97788.34;5052838;28;20240;-55
2022/11/19 08:51:27;;;;;;;62.85;34.63;;;;;;;13.94;100.00;97799.66;5052342;28;20698;-56
2022/11/19 08:53:53;;;;;;;65.63;38.50;;;;;;;14.04;100.00;97794.44;5052467;28;20204;-56
2022/11/19 08:56:19;;;;;;;60.00;34.70;;;;;;;14.07;100.00;97799.38;5052226;28;20561;-56
2022/11/19 08:58:45;;;;;;;53.95;31.75;;;;;;;14.09;100.00;97810.44;5051001;28;20639;-56
2022/11/19 09:01:12;;;;;;;54.08;32.40;;;;;;;14.18;100.00;97804.41;5050901;28;20178;-56
2022/11/19 09:03:37;;;;;;;49.67;31.00;;;;;;;14.24;100.00;97806.47;5052145;28;20177;-56
2022/11/19 09:06:04;;;;;;;55.20;30.33;;;;;;;14.39;100.00;97805.03;5050622;28;20592;-56
2022/11/19 09:08:30;;;;;;;51.40;28.25;;;;;;;14.44;100.00;97806.25;5052087;28;20181;-54
2022/11/19 09:10:56;;;;;;;46.10;26.60;;;;;;;14.52;100.00;97814.16;5052119;28;20189;-56
2022/11/19 09:13:21;;;;;;;52.28;29.17;;;;;;;14.62;100.00;97808.91;5051853;28;20193;-57
2022/11/19 09:15:48;;;;;;;54.13;28.17;;;;;;;14.69;100.00;97805.59;5051788;28;20190;-54
2022/11/19 09:18:14;;;;;;;48.90;29.20;;;;;;;14.74;100.00;97812.97;5051710;28;20200;-55
2022/11/19 09:20:39;;;;;;;45.08;27.48;;;;;;;14.78;100.00;97804.72;5051651;28;20177;-54
2022/11/19 09:23:05;;;;;;;50.35;29.33;;;;;;;14.87;100.00;97800.44;5051638;28;20166;-55
2022/11/19 09:25:31;;;;;;;45.03;27.42;;;;;;;14.96;100.00;97797.75;5050320;28;20222;-55
2022/11/19 09:27:57;;;;;;;44.22;25.58;;;;;;;15.06;100.00;97795.09;5051797;28;20633;-55
2022/11/19 09:30:22;;;;;;;42.92;24.10;;;;;;;15.15;100.00;97796.78;5051532;28;20264;-55
2022/11/19 09:32:48;;;;;;;39.40;22.67;;;;;;;15.22;100.00;97792.66;5051612;28;20205;-54
2022/11/19 09:35:13;;;;;;;36.33;22.50;;;;;;;15.28;100.00;97776.41;5051520;28;20174;-55
2022/11/19 09:37:39;;;;;;;43.78;24.92;;;;;;;15.34;100.00;97781.06;5051508;28;20174;-55
2022/11/19 09:40:07;;;;;;;38.75;27.85;;;;;;;15.35;100.00;97780.09;5051913;28;20564;-55
2022/11/19 09:42:51;;;;;;;34.33;22.25;;;;;;;15.45;100.00;97779.03;5050336;28;20712;-55
2022/11/19 09:45:50;;;;;;;35.45;21.63;;;;;;;15.56;100.00;97780.59;5051881;28;20181;-56
2022/11/19 09:48:21;;;;;;;35.13;21.38;;;;;;;15.62;100.00;97780.00;5054146;28;20249;-55
2022/11/19 09:50:58;;;;;;;33.88;21.15;;;;;;;15.57;100.00;97777.03;5055402;28;20616;-56
2022/11/19 09:53:29;;;;;;;31.83;19.75;;;;;;;15.63;100.00;97771.19;5055493;28;20193;-55
2022/11/19 09:55:57;;;;;;;34.80;19.70;;;;;;;15.72;100.00;97771.09;5055770;28;20165;-55
2022/11/19 09:58:44;;;;;;;23.98;16.17;;;;;;;15.79;100.00;97771.28;5037516;28;20178;-55
2022/11/19 10:01:16;;;;;;;27.35;18.17;;;;;;;15.90;100.00;97769.28;5055289;28;20740;-56
2022/11/19 10:03:49;;;;;;;25.23;17.55;;;;;;;15.99;100.00;97762.31;5055528;28;20154;-56
2022/11/19 10:06:20;;;;;;;30.95;19.33;;;;;;;16.08;100.00;97767.41;5055238;28;20571;-56
2022/11/19 10:09:23;;;;;;;30.08;18.95;;;;;;;16.10;100.00;97765.47;5055721;28;20162;-55
2022/11/19 10:12:10;;;;;;;27.27;18.83;;;;;;;16.15;100.00;97763.22;5055747;28;20634;-55
2022/11/19 10:14:52;;;;;;;28.27;18.42;;;;;;;16.12;100.00;97747.03;5054003;28;20750;-55
2022/11/19 10:17:50;;;;;;;25.02;17.88;;;;;;;16.05;100.00;97746.03;5055321;28;20654;-55
2022/11/19 10:20:34;;;;;;;29.63;18.83;;;;;;;15.96;100.00;97746.94;5053877;28;20166;-55
2022/11/19 10:23:10;;;;;;;28.95;19.23;;;;;;;15.94;100.00;97743.69;5053680;28;20700;-55
2022/11/19 10:25:41;;;;;;;31.23;19.73;;;;;;;15.88;100.00;97745.13;5054844;28;20219;-55
2022/11/19 10:28:20;;;;;;;32.60;18.58;;;;;;;15.88;100.00;97736.47;5054912;28;20173;-55
2022/11/19 10:30:51;;;;;;;29.73;20.17;;;;;;;15.87;100.00;97727.81;5055122;28;20169;-55
2022/11/19 10:33:26;;;;;;;28.85;18.98;;;;;;;15.88;100.00;97718.22;5054868;28;20202;-56
2022/11/19 10:35:59;;;;;;;23.35;16.58;;;;;;;16.03;100.00;97708.84;5054718;28;20188;-56
2022/11/19 10:38:36;;;;;;;32.70;19.35;;;;;;;16.00;100.00;97712.59;5055009;28;20554;-56
2022/11/19 10:41:16;;;;;;;24.77;18.13;;;;;;;15.99;100.00;97704.91;5054766;28;20245;-55
2022/11/19 10:43:54;;;;;;;25.15;17.05;;;;;;;16.12;100.00;97713.13;5055096;28;20154;-56
2022/11/19 10:46:24;;;;;;;25.90;18.05;;;;;;;16.20;100.00;97710.56;5055116;28;20153;-55
2022/11/19 10:48:54;;;;;;;27.92;16.92;;;;;;;16.36;100.00;97732.31;5054977;28;20181;-56
2022/11/19 10:51:35;;;;;;;27.77;18.80;;;;;;;16.51;100.00;97729.97;5054637;28;20654;-56
2022/11/19 10:54:06;;;;;;;31.52;19.27;;;;;;;16.65;100.00;97726.72;5054598;28;20609;-55
2022/11/19 10:56:38;;;;;;;28.85;20.10;;;;;;;16.81;100.00;97729.38;5054398;28;20254;-56
2022/11/19 10:59:17;;;;;;;34.15;20.13;;;;;;;16.88;100.00;97733.00;5053238;28;20203;-55
2022/11/19 11:01:46;;;;;;;26.60;18.67;;;;;;;16.88;100.00;97720.75;5054469;28;20184;-55
2022/11/19 11:04:18;;;;;;;22.00;17.42;;;;;;;16.90;100.00;97731.06;5054131;28;20197;-56
2022/11/19 11:06:58;;;;;;;27.23;18.58;;;;;;;17.04;100.00;97733.03;5054132;28;20223;-55
2022/11/19 11:09:30;;;;;;;25.75;18.02;;;;;;;17.18;100.00;97733.22;5054471;28;20176;-55
2022/11/19 11:14:51;;;;;;;25.25;16.55;;;;;;;17.40;100.00;97740.44;5054017;28;20208;-55
2022/11/19 11:17:30;;;;;;;26.80;17.33;;;;;;;17.42;100.00;97732.41;5054274;28;20174;-56
2022/11/19 11:20:23;;;;;;;24.23;17.27;;;;;;;17.47;100.00;97733.56;5054319;28;20168;-56
2022/11/19 11:23:00;;;;;;;24.80;18.10;;;;;;;17.52;100.00;97727.84;5053573;28;20694;-55
2022/11/19 11:25:27;;;;;;;25.00;17.15;;;;;;;17.59;100.00;97737.50;5053885;28;20655;-56
2022/11/19 11:28:04;;;;;;;22.73;16.45;;;;;;;17.65;100.00;97746.47;5053917;28;20213;-56
2022/11/19 11:30:29;;;;;;;24.90;15.68;;;;;;;17.73;100.00;97741.25;5053902;28;20180;-56
2022/11/19 11:32:55;;;;;;;19.63;15.32;;;;;;;17.69;100.00;97730.28;5053469;28;20615;-56
2022/11/19 11:35:36;;;;;;;17.70;13.00;;;;;;;17.56;100.00;97722.09;5053501;28;20307;-55
2022/11/19 11:38:03;;;;;;;14.40;11.65;;;;;;;17.42;100.00;97728.00;5053770;28;20161;-56
2022/11/19 11:40:29;;;;;;;15.35;11.07;;;;;;;17.53;100.00;97726.84;5053764;28;20260;-56
2022/11/19 11:42:55;;;;;;;13.90;11.52;;;;;;;17.55;100.00;97724.91;5053675;28;20169;-55
2022/11/19 11:45:32;;;;;;;16.98;12.02;;;;;;;17.49;100.00;97715.91;5053489;28;20169;-55